createdAt,value
2022-08-10T00:01:52.139Z,16.01
2022-08-10T00:04:22.336Z,16.01
2022-08-10T00:06:52.944Z,16.03
2022-08-10T00:09:22.971Z,15.96
2022-08-10T00:11:51.553Z,15.87
2022-08-10T00:14:20.073Z,15.82
2022-08-10T00:16:48.750Z,15.85
2022-08-10T00:19:17.454Z,15.80
2022-08-10T00:21:47.572Z,15.82
2022-08-10T00:24:16.598Z,15.75
2022-08-10T00:28:01.164Z,15.71
2022-08-10T00:29:38.730Z,15.73
2022-08-10T00:32:07.645Z,15.71
2022-08-10T00:34:36.264Z,15.65
2022-08-10T00:37:04.817Z,15.61
2022-08-10T00:39:35.951Z,15.56
2022-08-10T00:42:09.119Z,15.55
2022-08-10T00:44:39.466Z,15.56
2022-08-10T00:47:15.318Z,15.60
2022-08-10T00:49:58.726Z,15.51
2022-08-10T00:52:30.807Z,15.40
2022-08-10T00:55:00.098Z,15.42
2022-08-10T00:57:30.142Z,15.41
2022-08-10T01:00:00.293Z,15.40
2022-08-10T01:02:32.289Z,15.38
2022-08-10T01:05:05.060Z,15.30
2022-08-10T01:07:56.706Z,15.33
2022-08-10T01:10:55.962Z,15.26
2022-08-10T01:13:37.128Z,15.21
2022-08-10T01:16:15.157Z,15.18
2022-08-10T01:18:54.485Z,15.21
2022-08-10T01:22:12.431Z,15.15
2022-08-10T01:25:20.700Z,15.17
2022-08-10T01:28:05.743Z,15.22
2022-08-10T01:30:37.353Z,15.19
2022-08-10T01:33:13.028Z,15.16
2022-08-10T01:35:53.047Z,15.10
2022-08-10T01:38:28.905Z,15.08
2022-08-10T01:41:06.397Z,15.03
2022-08-10T01:43:42.298Z,15.05
2022-08-10T01:46:16.558Z,15.07
2022-08-10T01:48:51.232Z,15.07
2022-08-10T01:51:27.464Z,15.04
2022-08-10T01:54:01.529Z,15.02
2022-08-10T01:56:34.547Z,15.05
2022-08-10T01:59:10.350Z,15.03
2022-08-10T02:01:47.804Z,14.97
2022-08-10T02:04:20.679Z,14.86
2022-08-10T02:06:54.239Z,14.84
2022-08-10T02:09:28.103Z,14.88
2022-08-10T02:12:08.594Z,14.83
2022-08-10T02:14:44.343Z,14.88
2022-08-10T02:17:58.463Z,14.94
2022-08-10T02:20:16.488Z,14.89
2022-08-10T02:22:48.984Z,14.83
2022-08-10T02:25:42.642Z,14.80
2022-08-10T02:28:11.066Z,14.81
2022-08-10T02:30:40.736Z,14.86
2022-08-10T02:33:13.480Z,14.80
2022-08-10T02:35:55.002Z,14.84
2022-08-10T02:38:58.557Z,14.99
2022-08-10T02:42:18.826Z,15.05
2022-08-10T02:45:16.001Z,15.11
2022-08-10T02:47:27.492Z,15.20
2022-08-10T02:50:07.512Z,15.28
2022-08-10T02:52:45.455Z,15.34
2022-08-10T02:55:27.074Z,15.43
2022-08-10T02:58:12.730Z,15.51
2022-08-10T03:00:51.006Z,15.47
2022-08-10T03:03:24.691Z,15.37
2022-08-10T03:06:01.520Z,15.28
2022-08-10T03:08:37.408Z,15.17
2022-08-10T03:11:09.698Z,15.14
2022-08-10T03:13:39.068Z,15.13
2022-08-10T03:16:10.949Z,15.11
2022-08-10T03:18:41.420Z,15.20
2022-08-10T03:21:12.326Z,15.13
2022-08-10T03:23:44.838Z,15.15
2022-08-10T03:26:20.314Z,15.25
2022-08-10T03:28:50.196Z,15.41
2022-08-10T03:31:19.653Z,15.48
2022-08-10T03:33:49.575Z,15.42
2022-08-10T03:36:40.709Z,15.32
2022-08-10T03:39:07.872Z,15.26
2022-08-10T03:41:42.077Z,15.35
2022-08-10T03:44:30.990Z,15.38
2022-08-10T03:47:02.120Z,15.41
2022-08-10T03:49:33.028Z,15.39
2022-08-10T03:52:03.166Z,15.37
2022-08-10T03:54:31.646Z,15.36
2022-08-10T03:57:00.311Z,15.36
2022-08-10T03:59:31.392Z,15.28
2022-08-10T04:02:43.755Z,15.31
2022-08-10T04:04:50.501Z,15.33
2022-08-10T04:07:20.439Z,15.32
2022-08-10T04:09:58.940Z,15.42
2022-08-10T04:12:27.434Z,15.48
2022-08-10T04:14:55.855Z,15.60
2022-08-10T04:18:01.236Z,15.62
2022-08-10T04:20:20.849Z,15.61
2022-08-10T04:22:57.025Z,15.60
2022-08-10T04:25:29.435Z,15.73
2022-08-10T04:27:59.594Z,15.82
2022-08-10T04:30:31.090Z,15.75
2022-08-10T04:33:03.249Z,15.76
2022-08-10T04:35:34.277Z,15.86
2022-08-10T04:38:06.752Z,15.96
2022-08-10T04:40:35.282Z,16.00
2022-08-10T04:43:12.935Z,16.10
2022-08-10T04:45:48.750Z,16.13
2022-08-10T04:48:39.900Z,16.23
2022-08-10T04:51:17.147Z,16.24
2022-08-10T04:54:04.778Z,16.26
2022-08-10T04:56:37.485Z,16.41
2022-08-10T04:59:07.742Z,16.51
2022-08-10T05:02:09.822Z,16.65
2022-08-10T05:04:34.550Z,16.80
2022-08-10T05:07:09.523Z,16.83
2022-08-10T05:10:03.402Z,16.94
2022-08-10T05:12:29.432Z,17.07
2022-08-10T05:14:58.402Z,17.13
2022-08-10T05:17:27.619Z,17.24
2022-08-10T05:20:03.805Z,17.37
2022-08-10T05:22:36.407Z,17.47
2022-08-10T05:25:09.395Z,17.52
2022-08-10T05:27:38.606Z,17.65
2022-08-10T05:30:09.748Z,17.72
2022-08-10T05:32:56.658Z,17.80
2022-08-10T05:35:27.998Z,17.94
2022-08-10T05:38:13.195Z,18.09
2022-08-10T05:40:47.093Z,18.23
2022-08-10T05:43:18.988Z,18.37
2022-08-10T05:46:18.432Z,18.48
2022-08-10T05:48:54.415Z,18.68
2022-08-10T05:51:26.942Z,18.85
2022-08-10T05:54:01.649Z,19.04
2022-08-10T05:56:53.450Z,19.23
2022-08-10T06:00:10.885Z,19.42
2022-08-10T06:02:30.659Z,19.66
2022-08-10T06:05:12.628Z,19.87
2022-08-10T06:07:46.126Z,20.18
2022-08-10T06:10:31.600Z,20.65
2022-08-10T06:13:30.379Z,21.18
2022-08-10T06:16:07.434Z,21.47
2022-08-10T06:18:37.656Z,21.85
2022-08-10T06:21:07.094Z,22.34
2022-08-10T06:23:37.102Z,22.52
2022-08-10T06:26:11.843Z,22.80
2022-08-10T06:29:03.339Z,22.75
2022-08-10T06:31:47.510Z,22.77
2022-08-10T06:34:23.672Z,22.83
2022-08-10T06:36:54.228Z,22.89
2022-08-10T06:39:33.684Z,23.34
2022-08-10T06:42:16.243Z,23.36
2022-08-10T06:45:01.777Z,23.63
2022-08-10T06:47:40.444Z,23.51
2022-08-10T06:50:34.834Z,23.88
2022-08-10T06:53:13.288Z,24.28
2022-08-10T06:55:55.109Z,24.29
2022-08-10T06:58:30.115Z,24.33
2022-08-10T07:01:04.908Z,24.01
2022-08-10T07:03:43.424Z,24.66
2022-08-10T07:06:15.372Z,24.91
2022-08-10T07:08:46.144Z,24.57
2022-08-10T07:11:16.492Z,24.74
2022-08-10T07:14:15.767Z,25.00
2022-08-10T07:16:42.564Z,25.02
2022-08-10T07:19:12.871Z,25.19
2022-08-10T07:21:45.131Z,25.43
2022-08-10T07:24:16.888Z,25.75
2022-08-10T07:26:49.838Z,25.74
2022-08-10T07:29:26.671Z,25.46
2022-08-10T07:32:15.133Z,25.52
2022-08-10T07:34:48.006Z,25.94
2022-08-10T07:37:18.767Z,26.46
2022-08-10T07:39:58.509Z,26.38
2022-08-10T07:42:34.886Z,26.28
2022-08-10T07:45:05.190Z,26.43
2022-08-10T07:47:52.758Z,26.41
2022-08-10T07:50:26.342Z,26.33
2022-08-10T07:53:00.681Z,26.79
2022-08-10T07:56:05.412Z,27.37
2022-08-10T07:58:20.999Z,27.28
2022-08-10T08:00:53.274Z,27.07
2022-08-10T08:03:28.172Z,27.04
2022-08-10T08:06:03.203Z,27.56
2022-08-10T08:08:39.043Z,27.55
2022-08-10T08:11:08.982Z,27.54
2022-08-10T08:13:40.389Z,27.53
2022-08-10T08:16:19.829Z,27.56
2022-08-10T08:19:26.891Z,27.77
2022-08-10T08:24:07.661Z,27.95
2022-08-10T08:24:37.970Z,27.88
2022-08-10T08:27:07.736Z,28.37
2022-08-10T08:29:40.161Z,29.02
2022-08-10T08:32:09.487Z,28.78
2022-08-10T08:34:43.479Z,28.87
2022-08-10T08:38:29.640Z,29.70
2022-08-10T08:40:10.383Z,29.84
2022-08-10T08:43:14.266Z,29.89
2022-08-10T08:46:28.726Z,29.67
2022-08-10T08:50:07.724Z,29.78
2022-08-10T08:52:39.971Z,29.76
2022-08-10T08:56:03.963Z,29.46
2022-08-10T08:58:45.052Z,30.07
2022-08-10T09:01:40.301Z,30.14
2022-08-10T09:04:42.842Z,30.00
2022-08-10T09:08:01.189Z,30.65
2022-08-10T09:10:51.275Z,30.54
2022-08-10T09:13:29.460Z,30.69
2022-08-10T09:16:15.376Z,31.06
2022-08-10T09:18:53.401Z,31.23
2022-08-10T09:21:34.515Z,30.83
2022-08-10T09:24:28.347Z,30.44
2022-08-10T09:27:02.063Z,30.94
2022-08-10T09:29:37.613Z,30.60
2022-08-10T09:36:14.793Z,31.11
2022-08-10T09:36:21.605Z,31.40
2022-08-10T09:38:24.563Z,31.56
2022-08-10T09:41:13.485Z,32.31
2022-08-10T09:44:07.241Z,32.25
2022-08-10T09:47:00.805Z,32.20
2022-08-10T09:49:58.727Z,31.94
2022-08-10T09:52:44.910Z,32.13
2022-08-10T09:55:21.588Z,32.43
2022-08-10T09:58:13.551Z,32.14
2022-08-10T10:00:53.175Z,32.07
2022-08-10T10:03:32.806Z,32.51
2022-08-10T10:06:11.657Z,32.28
2022-08-10T10:09:10.201Z,32.67
2022-08-10T10:12:07.030Z,32.09
2022-08-10T10:15:24.722Z,31.89
2022-08-10T10:18:40.221Z,32.65
2022-08-10T10:21:24.240Z,32.87
2022-08-10T10:24:22.782Z,33.28
2022-08-10T10:26:59.081Z,32.86
2022-08-10T10:29:58.671Z,33.06
2022-08-10T10:32:42.431Z,33.28
2022-08-10T10:35:24.472Z,33.23
2022-08-10T10:38:00.780Z,33.28
2022-08-10T10:40:50.530Z,32.89
2022-08-10T10:43:41.010Z,33.39
2022-08-10T10:46:25.559Z,33.89
2022-08-10T10:49:08.107Z,32.27
2022-08-10T10:51:49.250Z,32.99
2022-08-10T10:54:29.251Z,33.85
2022-08-10T10:57:11.088Z,33.83
2022-08-10T10:59:56.476Z,33.21
2022-08-10T11:02:50.870Z,33.92
2022-08-10T11:05:37.056Z,33.28
2022-08-10T11:08:14.654Z,34.79
2022-08-10T11:10:52.872Z,35.41
2022-08-10T11:14:24.896Z,33.46
2022-08-10T11:16:36.690Z,34.07
2022-08-10T11:19:19.188Z,34.91
2022-08-10T11:22:04.414Z,34.25
2022-08-10T11:24:50.257Z,35.09
2022-08-10T11:27:32.916Z,35.16
2022-08-10T11:30:07.494Z,35.30
2022-08-10T11:32:48.275Z,35.96
2022-08-10T11:35:34.749Z,35.29
2022-08-10T11:38:32.770Z,35.71
2022-08-10T11:42:09.257Z,35.04
2022-08-10T11:44:22.079Z,34.69
2022-08-10T11:47:02.207Z,33.84
2022-08-10T11:49:36.767Z,34.11
2022-08-10T11:52:16.271Z,35.56
2022-08-10T11:54:54.137Z,35.37
2022-08-10T11:57:54.351Z,34.48
2022-08-10T12:00:18.882Z,34.26
2022-08-10T12:02:53.564Z,33.98
2022-08-10T12:05:51.552Z,33.65
2022-08-10T12:10:06.916Z,34.87
2022-08-10T12:11:17.176Z,34.91
2022-08-10T12:14:21.871Z,35.91
2022-08-10T12:17:03.101Z,35.66
2022-08-10T12:20:02.834Z,35.69
2022-08-10T12:22:39.603Z,32.48
2022-08-10T12:25:55.566Z,31.69
2022-08-10T12:28:15.463Z,31.15
2022-08-10T12:30:53.015Z,30.70
2022-08-10T12:33:26.317Z,29.54
2022-08-10T12:36:18.435Z,29.70
2022-08-10T12:39:02.914Z,31.39
2022-08-10T12:41:44.663Z,32.22
2022-08-10T12:44:22.666Z,32.94
2022-08-10T12:46:59.637Z,31.58
2022-08-10T12:49:35.314Z,30.42
2022-08-10T12:52:15.740Z,30.99
2022-08-10T12:54:47.783Z,30.50
2022-08-10T12:57:22.636Z,30.10
2022-08-10T12:59:55.867Z,29.52
2022-08-10T13:02:28.953Z,31.15
2022-08-10T13:05:00.702Z,32.19
2022-08-10T13:08:24.814Z,32.27
2022-08-10T13:10:24.676Z,29.92
2022-08-10T13:12:59.380Z,29.85
2022-08-10T13:15:49.183Z,29.13
2022-08-10T13:18:27.510Z,29.53
2022-08-10T13:21:03.830Z,30.53
2022-08-10T13:24:04.933Z,32.04
2022-08-10T13:26:38.752Z,33.07
2022-08-10T13:29:36.062Z,34.01
2022-08-10T13:32:10.292Z,34.24
2022-08-10T13:34:46.315Z,33.91
2022-08-10T13:37:21.135Z,32.04
2022-08-10T13:39:58.811Z,31.67
2022-08-10T13:42:33.190Z,31.60
2022-08-10T13:45:11.106Z,31.58
2022-08-10T13:47:48.773Z,31.29
2022-08-10T13:50:33.595Z,30.23
2022-08-10T13:53:11.620Z,29.01
2022-08-10T13:55:53.905Z,28.20
2022-08-10T13:58:32.104Z,27.70
2022-08-10T14:01:09.594Z,26.92
2022-08-10T14:03:42.262Z,26.81
2022-08-10T14:06:15.531Z,28.71
2022-08-10T14:08:51.709Z,30.24
2022-08-10T14:11:22.882Z,31.29
2022-08-10T14:13:57.600Z,31.80
2022-08-10T14:16:29.195Z,32.31
2022-08-10T14:19:04.547Z,31.80
2022-08-10T14:21:40.067Z,31.56
2022-08-10T14:24:24.866Z,32.02
2022-08-10T14:27:03.502Z,32.31
2022-08-10T14:29:34.243Z,32.76
2022-08-10T14:32:10.348Z,32.55
2022-08-10T14:36:16.074Z,32.81
2022-08-10T14:37:38.844Z,32.10
2022-08-10T14:40:11.168Z,31.88
2022-08-10T14:42:48.118Z,32.12
2022-08-10T14:45:25.712Z,32.93
2022-08-10T14:48:06.737Z,33.28
2022-08-10T14:50:36.862Z,33.04
2022-08-10T14:53:10.885Z,33.28
2022-08-10T14:55:57.685Z,32.67
2022-08-10T14:58:34.036Z,32.17
2022-08-10T15:01:05.511Z,30.66
2022-08-10T15:04:00.904Z,30.96
2022-08-10T15:06:37.727Z,30.98
2022-08-10T15:09:19.272Z,31.50
2022-08-10T15:12:14.170Z,31.85
2022-08-10T15:14:44.717Z,31.84
2022-08-10T15:17:17.338Z,31.61
2022-08-10T15:20:02.600Z,31.45
2022-08-10T15:22:45.317Z,31.32
2022-08-10T15:25:19.195Z,30.79
2022-08-10T15:27:58.033Z,31.05
2022-08-10T15:30:42.840Z,30.74
2022-08-10T15:34:03.750Z,30.58
2022-08-10T15:36:45.113Z,30.97
2022-08-10T15:40:21.920Z,30.89
2022-08-10T15:42:23.309Z,30.14
2022-08-10T15:44:55.042Z,29.23
2022-08-10T15:47:45.743Z,29.31
2022-08-10T15:50:20.417Z,29.79
2022-08-10T15:53:02.756Z,29.82
2022-08-10T15:55:43.614Z,29.86
2022-08-10T15:58:38.824Z,29.91
2022-08-10T16:02:13.112Z,29.78
2022-08-10T16:04:09.108Z,29.67
2022-08-10T16:06:44.652Z,29.82
2022-08-10T16:10:24.455Z,29.84
2022-08-10T16:12:29.995Z,29.62
2022-08-10T16:15:08.051Z,29.24
2022-08-10T16:17:54.875Z,28.70
2022-08-10T16:20:31.167Z,29.00
2022-08-10T16:23:04.950Z,29.00
2022-08-10T16:25:48.194Z,28.72
2022-08-10T16:28:23.970Z,28.53
2022-08-10T16:30:57.889Z,28.16
2022-08-10T16:33:54.265Z,27.75
2022-08-10T16:36:21.815Z,27.72
2022-08-10T16:38:53.005Z,27.24
2022-08-10T16:42:03.125Z,27.38
2022-08-10T16:44:27.172Z,27.38
2022-08-10T16:46:57.848Z,27.73
2022-08-10T16:49:28.167Z,27.70
2022-08-10T16:51:58.724Z,27.53
2022-08-10T16:54:28.483Z,27.49
2022-08-10T16:57:04.685Z,27.29
2022-08-10T16:59:38.746Z,27.26
2022-08-10T17:02:14.493Z,26.96
2022-08-10T17:04:45.116Z,26.77
2022-08-10T17:07:19.182Z,26.72
2022-08-10T17:09:55.236Z,26.80
2022-08-10T17:12:31.539Z,26.43
2022-08-10T17:15:09.413Z,26.34
2022-08-10T17:17:45.953Z,26.26
2022-08-10T17:20:30.953Z,25.97
2022-08-10T17:23:06.815Z,25.73
2022-08-10T17:25:48.812Z,25.73
2022-08-10T17:28:34.761Z,25.62
2022-08-10T17:31:38.913Z,25.38
2022-08-10T17:34:12.233Z,25.45
2022-08-10T17:36:43.801Z,25.37
2022-08-10T17:39:16.410Z,25.28
2022-08-10T17:41:53.135Z,25.17
2022-08-10T17:44:24.490Z,25.15
2022-08-10T17:46:55.241Z,24.91
2022-08-10T17:49:27.085Z,24.66
2022-08-10T17:52:00.275Z,24.57
2022-08-10T17:54:34.132Z,24.52
2022-08-10T17:57:24.684Z,24.22
2022-08-10T18:00:08.003Z,24.18
2022-08-10T18:06:00.284Z,23.73
2022-08-10T18:08:52.685Z,23.60
2022-08-10T18:11:34.339Z,23.37
2022-08-10T18:14:57.253Z,23.23
2022-08-10T18:17:43.817Z,22.93
2022-08-10T18:20:20.032Z,22.76
2022-08-10T18:23:03.817Z,22.55
2022-08-10T18:25:38.419Z,22.47
2022-08-10T18:33:40.762Z,21.96
2022-08-10T18:36:15.811Z,21.65
2022-08-10T18:38:51.998Z,21.50
2022-08-10T18:41:29.742Z,21.38
2022-08-10T18:44:12.855Z,21.27
2022-08-10T18:46:54.992Z,21.16
2022-08-10T18:49:33.834Z,21.09
2022-08-10T18:52:10.464Z,20.98
2022-08-10T18:55:04.687Z,20.91
2022-08-10T18:58:28.615Z,20.76
2022-08-10T19:01:43.178Z,20.75
2022-08-10T19:04:37.868Z,20.63
2022-08-10T19:07:31.782Z,20.43
2022-08-10T19:10:55.924Z,20.30
2022-08-10T19:13:38.302Z,20.24
2022-08-10T19:16:19.504Z,20.22
2022-08-10T19:19:23.283Z,20.18
2022-08-10T19:22:03.948Z,20.11
2022-08-10T19:24:53.358Z,20.04
2022-08-10T19:27:41.846Z,19.89
2022-08-10T19:30:15.779Z,19.77
2022-08-10T19:36:46.358Z,19.44
2022-08-10T19:39:29.232Z,19.32
2022-08-10T19:42:11.664Z,19.29
2022-08-10T19:44:53.119Z,19.18
2022-08-10T19:47:33.710Z,19.09
2022-08-10T19:50:09.614Z,19.00
2022-08-10T19:52:51.649Z,18.90
2022-08-10T19:55:35.041Z,18.83
2022-08-10T19:58:17.515Z,18.69
2022-08-10T20:01:00.566Z,18.58
2022-08-10T20:03:49.929Z,18.49
2022-08-10T20:06:27.714Z,18.40
2022-08-10T20:09:07.691Z,18.42
2022-08-10T20:11:49.102Z,18.44
2022-08-10T20:14:28.784Z,18.35
2022-08-10T20:17:51.696Z,18.31
2022-08-10T20:23:56.230Z,18.23
2022-08-10T20:26:35.996Z,18.20
2022-08-10T20:29:57.417Z,18.22
2022-08-10T20:32:26.124Z,18.12
2022-08-10T20:35:08.108Z,18.05
2022-08-10T20:38:03.819Z,17.97
2022-08-10T20:40:47.535Z,17.94
2022-08-10T20:43:34.426Z,17.98
2022-08-10T20:46:19.144Z,17.91
2022-08-10T20:49:16.993Z,17.93
2022-08-10T20:52:12.394Z,17.87
2022-08-10T20:54:51.123Z,17.85
2022-08-10T20:58:04.334Z,17.86
2022-08-10T21:00:52.284Z,17.91
2022-08-10T21:03:45.744Z,17.84
2022-08-10T21:06:43.889Z,17.84
2022-08-10T21:09:57.158Z,17.70
2022-08-10T21:12:57.801Z,17.64
2022-08-10T21:15:56.615Z,17.63
2022-08-10T21:18:46.803Z,17.65
2022-08-10T21:22:05.254Z,17.46
2022-08-10T21:24:47.617Z,17.36
2022-08-10T21:27:48.730Z,17.27
2022-08-10T21:30:23.759Z,17.21
2022-08-10T21:32:59.699Z,17.15
2022-08-10T21:35:40.972Z,17.07
2022-08-10T21:38:26.574Z,17.06
2022-08-10T21:41:56.548Z,16.98
2022-08-10T21:45:10.484Z,16.95
2022-08-10T21:48:18.506Z,16.95
2022-08-10T21:51:16.266Z,17.01
2022-08-10T21:54:25.938Z,17.00
2022-08-10T21:57:25.966Z,16.95
2022-08-10T22:00:22.331Z,16.96
2022-08-10T22:03:11.206Z,16.89
2022-08-10T22:05:59.849Z,16.89
2022-08-10T22:08:56.470Z,16.93
2022-08-10T22:11:50.967Z,16.95
2022-08-10T22:14:45.865Z,17.11
2022-08-10T22:18:03.341Z,17.09
2022-08-10T22:20:49.730Z,17.06
2022-08-10T22:24:16.911Z,16.90
2022-08-10T22:27:46.217Z,16.96
2022-08-10T22:30:36.935Z,16.89
2022-08-10T22:33:44.221Z,16.88
2022-08-10T22:37:16.819Z,16.77
2022-08-10T22:40:19.050Z,16.57
2022-08-10T22:43:11.823Z,16.55
2022-08-10T22:46:09.035Z,16.57
2022-08-10T22:48:59.525Z,16.54
2022-08-10T22:51:40.288Z,16.55
2022-08-10T22:54:39.595Z,16.42
2022-08-10T22:57:31.330Z,16.39
2022-08-10T23:00:14.357Z,16.37
2022-08-10T23:02:53.228Z,16.29
2022-08-10T23:05:32.297Z,16.24
2022-08-10T23:08:09.723Z,16.30
2022-08-10T23:10:44.390Z,16.30
2022-08-10T23:13:35.678Z,16.34
2022-08-10T23:16:39.375Z,16.19
2022-08-10T23:19:17.109Z,16.10
2022-08-10T23:22:04.866Z,16.01
2022-08-10T23:24:38.819Z,16.04
2022-08-10T23:27:37.882Z,16.09
2022-08-10T23:30:10.779Z,16.09
2022-08-10T23:32:47.141Z,16.12
2022-08-10T23:36:31.402Z,16.13
2022-08-10T23:38:08.499Z,16.15
2022-08-10T23:40:38.514Z,16.15
2022-08-10T23:43:08.581Z,16.20
2022-08-10T23:45:52.766Z,16.15
2022-08-10T23:48:29.574Z,16.11
2022-08-10T23:51:02.234Z,16.11
2022-08-10T23:53:36.304Z,16.10
2022-08-10T23:56:11.538Z,16.09
2022-08-10T23:58:45.342Z,16.14
